createdAt,value
2019-04-22T00:00:45.360Z,52.77
2019-04-22T00:03:19.945Z,54.22
2019-04-22T00:06:06.731Z,53.97
2019-04-22T00:08:44.573Z,54.66
2019-04-22T00:11:23.961Z,54.72
2019-04-22T00:13:51.974Z,55.32
2019-04-22T00:16:27.567Z,55.25
2019-04-22T00:21:25.764Z,55.75
2019-04-22T00:23:57.943Z,56.07
2019-04-22T00:26:29.309Z,56.40
2019-04-22T00:29:21.280Z,57.06
2019-04-22T00:32:00.271Z,57.16
2019-04-22T00:34:29.890Z,57.16
2019-04-22T00:37:02.867Z,57.14
2019-04-22T00:39:42.599Z,57.41
2019-04-22T00:42:08.115Z,56.56
2019-04-22T00:44:46.968Z,57.48
2019-04-22T00:47:21.738Z,56.60
2019-04-22T00:50:13.140Z,56.74
2019-04-22T00:52:16.629Z,55.75
2019-04-22T00:54:54.426Z,54.45
2019-04-22T00:57:26.889Z,53.70
2019-04-22T00:59:54.911Z,53.80
2019-04-22T01:02:27.186Z,52.75
2019-04-22T01:05:17.001Z,52.79
2019-04-22T01:07:23.702Z,52.89
2019-04-22T01:12:34.331Z,53.74
2019-04-22T01:15:09.488Z,55.35
2019-04-22T01:17:43.438Z,54.63
2019-04-22T01:20:24.500Z,55.11
2019-04-22T01:22:33.024Z,55.12
2019-04-22T01:25:08.092Z,54.97
2019-04-22T01:27:37.824Z,55.33
2019-04-22T01:30:03.646Z,55.47
2019-04-22T01:32:30.652Z,56.97
2019-04-22T01:35:11.111Z,57.15
2019-04-22T01:37:45.537Z,56.41
2019-04-22T01:40:29.379Z,57.03
2019-04-22T01:43:03.797Z,56.78
2019-04-22T01:45:35.668Z,56.92
2019-04-22T01:48:02.902Z,56.35
2019-04-22T01:50:30.637Z,56.75
2019-04-22T01:53:05.995Z,55.87
2019-04-22T01:55:38.859Z,56.57
2019-04-22T01:58:08.999Z,57.48
2019-04-22T02:00:39.883Z,56.94
2019-04-22T02:03:12.266Z,56.78
2019-04-22T02:05:42.585Z,57.14
2019-04-22T02:08:26.811Z,57.23
2019-04-22T02:10:54.601Z,56.31
2019-04-22T02:13:21.952Z,57.60
2019-04-22T02:15:52.447Z,57.21
2019-04-22T02:18:23.024Z,57.40
2019-04-22T02:20:55.289Z,57.72
2019-04-22T02:28:49.077Z,58.73
2019-04-22T02:36:22.666Z,59.06
2019-04-22T02:41:26.374Z,59.84
2019-04-22T02:44:04.052Z,60.10
2019-04-22T02:49:04.195Z,60.71
2019-04-22T02:54:27.108Z,61.13
2019-04-22T02:59:14.368Z,60.62
2019-04-22T03:04:35.576Z,58.35
2019-04-22T03:09:14.457Z,57.77
2019-04-22T03:11:45.817Z,57.45
2019-04-22T03:19:35.948Z,57.40
2019-04-22T03:27:08.024Z,57.79
2019-04-22T03:35:30.335Z,57.69
2019-04-22T03:37:48.832Z,58.30
2019-04-22T03:40:19.586Z,58.00
2019-04-22T03:45:27.880Z,58.86
2019-04-22T03:47:53.792Z,58.83
2019-04-22T03:50:25.866Z,58.36
2019-04-22T03:52:56.515Z,58.37
2019-04-22T03:57:53.891Z,58.69
2019-04-22T04:00:35.596Z,58.87
2019-04-22T04:03:00.888Z,58.96
2019-04-22T04:08:19.634Z,59.48
2019-04-22T04:10:40.231Z,59.41
2019-04-22T04:13:08.354Z,59.69
2019-04-22T04:15:53.487Z,59.99
2019-04-22T04:18:37.358Z,60.01
2019-04-22T04:20:56.403Z,60.03
2019-04-22T04:23:38.354Z,59.74
2019-04-22T04:25:47.568Z,60.06
2019-04-22T04:30:52.887Z,60.48
2019-04-22T04:33:23.016Z,60.13
2019-04-22T04:36:01.092Z,60.32
2019-04-22T04:38:32.254Z,60.58
2019-04-22T04:40:58.005Z,61.13
2019-04-22T04:43:41.494Z,60.76
2019-04-22T04:46:10.118Z,60.75
2019-04-22T04:48:42.336Z,61.08
2019-04-22T04:53:33.687Z,60.40
2019-04-22T04:56:33.976Z,60.65
2019-04-22T04:59:09.861Z,60.99
2019-04-22T05:01:23.430Z,60.81
2019-04-22T05:03:56.846Z,60.74
2019-04-22T05:06:22.233Z,61.08
2019-04-22T05:11:33.213Z,60.63
2019-04-22T05:13:57.390Z,60.20
2019-04-22T05:16:34.460Z,59.92
2019-04-22T05:24:02.393Z,61.16
2019-04-22T05:29:03.796Z,60.74
2019-04-22T05:31:35.517Z,60.30
2019-04-22T05:34:04.546Z,59.75
2019-04-22T05:36:38.441Z,59.70
2019-04-22T05:39:06.216Z,59.83
2019-04-22T05:41:35.307Z,61.04
2019-04-22T05:44:08.602Z,62.11
2019-04-22T05:46:39.590Z,63.21
2019-04-22T05:49:18.234Z,62.19
2019-04-22T05:51:42.022Z,62.59
2019-04-22T05:57:04.017Z,59.99
2019-04-22T05:59:19.027Z,59.72
2019-04-22T06:04:25.726Z,61.05
2019-04-22T06:06:54.211Z,60.17
2019-04-22T06:09:30.607Z,60.12
2019-04-22T06:11:54.306Z,58.43
2019-04-22T06:14:31.351Z,59.02
2019-04-22T06:17:08.277Z,57.25
2019-04-22T06:19:38.217Z,57.48
2019-04-22T06:22:12.839Z,57.09
2019-04-22T06:24:43.457Z,57.25
2019-04-22T06:27:18.238Z,56.92
2019-04-22T06:29:41.308Z,56.00
2019-04-22T06:34:48.706Z,56.44
2019-04-22T06:37:26.118Z,56.47
2019-04-22T06:39:53.738Z,55.86
2019-04-22T06:42:28.764Z,55.04
2019-04-22T06:44:58.172Z,53.98
2019-04-22T06:49:59.187Z,53.60
2019-04-22T06:52:36.113Z,52.66
2019-04-22T06:57:38.936Z,52.50
2019-04-22T07:00:13.714Z,52.83
2019-04-22T07:03:07.862Z,52.04
2019-04-22T07:05:10.419Z,50.69
2019-04-22T07:07:39.997Z,50.98
2019-04-22T07:10:23.616Z,49.57
2019-04-22T07:13:01.502Z,49.50
2019-04-22T07:15:36.977Z,49.38
2019-04-22T07:20:24.172Z,48.83
2019-04-22T07:22:51.351Z,47.58
2019-04-22T07:25:23.580Z,47.45
2019-04-22T07:27:58.187Z,47.10
2019-04-22T07:30:26.925Z,47.17
2019-04-22T07:35:42.188Z,47.30
2019-04-22T07:38:13.241Z,47.25
2019-04-22T07:40:38.743Z,47.03
2019-04-22T07:43:14.900Z,46.38
2019-04-22T07:45:44.287Z,46.15
2019-04-22T07:48:19.034Z,45.88
2019-04-22T07:50:56.290Z,45.35
2019-04-22T07:53:13.280Z,45.21
2019-04-22T07:55:47.274Z,45.55
2019-04-22T07:58:27.448Z,45.06
2019-04-22T08:00:55.263Z,45.33
2019-04-22T08:03:29.095Z,45.46
2019-04-22T08:06:08.717Z,44.77
2019-04-22T08:08:34.022Z,44.09
2019-04-22T08:11:10.553Z,44.31
2019-04-22T08:13:34.169Z,43.96
2019-04-22T08:16:17.205Z,43.63
2019-04-22T08:18:54.976Z,44.39
2019-04-22T08:21:23.687Z,43.67
2019-04-22T08:24:38.775Z,43.02
2019-04-22T08:26:56.472Z,42.86
2019-04-22T08:29:32.218Z,42.73
2019-04-22T08:32:01.315Z,42.20
2019-04-22T08:34:29.894Z,42.77
2019-04-22T08:37:35.432Z,41.85
2019-04-22T08:39:38.651Z,41.80
2019-04-22T08:42:09.925Z,41.98
2019-04-22T08:44:56.767Z,41.68
2019-04-22T08:47:21.822Z,40.78
2019-04-22T08:50:02.466Z,40.72
2019-04-22T08:52:27.419Z,41.12
2019-04-22T08:57:55.564Z,40.18
2019-04-22T09:00:05.391Z,39.68
2019-04-22T09:02:41.340Z,39.54
2019-04-22T09:05:20.547Z,40.04
2019-04-22T09:07:38.127Z,39.58
2019-04-22T09:10:17.182Z,39.76
2019-04-22T09:12:57.887Z,40.04
2019-04-22T09:15:26.453Z,38.92
2019-04-22T09:17:58.688Z,38.69
2019-04-22T09:20:28.639Z,38.96
2019-04-22T09:23:02.705Z,38.43
2019-04-22T09:25:29.769Z,39.00
2019-04-22T09:28:01.907Z,37.92
2019-04-22T09:30:41.579Z,39.08
2019-04-22T09:33:14.052Z,37.82
2019-04-22T09:35:44.998Z,38.49
2019-04-22T09:38:26.770Z,37.34
2019-04-22T09:43:16.864Z,38.33
2019-04-22T09:45:47.740Z,36.99
2019-04-22T09:48:23.703Z,37.52
2019-04-22T09:51:11.545Z,36.74
2019-04-22T09:53:22.550Z,35.75
2019-04-22T09:55:56.728Z,36.16
2019-04-22T09:58:31.692Z,36.08
2019-04-22T10:01:29.685Z,35.42
2019-04-22T10:14:12.349Z,35.83
2019-04-22T10:16:50.176Z,34.84
2019-04-22T10:19:18.315Z,34.66
2019-04-22T10:24:36.921Z,36.72
2019-04-22T10:26:50.595Z,34.27
2019-04-22T10:29:24.424Z,34.84
2019-04-22T10:31:57.528Z,35.60
2019-04-22T10:34:14.138Z,36.04
2019-04-22T10:36:35.420Z,36.15
2019-04-22T10:39:06.810Z,36.24
2019-04-22T10:41:36.918Z,36.07
2019-04-22T10:44:08.686Z,36.01
2019-04-22T10:46:40.206Z,36.64
2019-04-22T10:49:10.522Z,34.68
2019-04-22T10:51:40.816Z,33.80
2019-04-22T10:54:11.474Z,35.43
2019-04-22T10:56:41.538Z,34.28
2019-04-22T10:59:11.682Z,34.49
2019-04-22T11:01:42.343Z,34.50
2019-04-22T11:04:13.297Z,33.73
2019-04-22T11:06:52.082Z,33.24
2019-04-22T11:09:16.312Z,34.60
2019-04-22T11:11:56.614Z,33.42
2019-04-22T11:14:19.053Z,34.16
2019-04-22T11:16:49.747Z,34.24
2019-04-22T11:19:21.358Z,32.53
2019-04-22T11:22:05.079Z,32.67
2019-04-22T11:24:23.699Z,33.14
2019-04-22T11:26:54.939Z,33.40
2019-04-22T11:29:25.685Z,34.48
2019-04-22T11:31:56.634Z,33.27
2019-04-22T11:34:26.956Z,33.24
2019-04-22T11:36:57.110Z,31.78
2019-04-22T11:39:30.786Z,31.14
2019-04-22T11:42:00.301Z,32.53
2019-04-22T11:44:30.898Z,33.09
2019-04-22T11:47:01.532Z,32.42
2019-04-22T11:49:32.038Z,32.20
2019-04-22T11:52:04.926Z,32.27
2019-04-22T11:54:34.704Z,33.27
2019-04-22T11:57:05.454Z,32.86
2019-04-22T11:59:36.488Z,33.01
2019-04-22T12:02:06.838Z,30.90
2019-04-22T12:04:38.000Z,32.20
2019-04-22T12:07:08.780Z,33.11
2019-04-22T12:09:39.569Z,33.03
2019-04-22T12:12:09.796Z,32.47
2019-04-22T12:14:40.190Z,32.19
2019-04-22T12:17:11.328Z,30.79
2019-04-22T12:19:42.066Z,29.77
2019-04-22T12:22:13.308Z,30.13
2019-04-22T12:24:43.837Z,30.95
2019-04-22T12:27:18.348Z,28.62
2019-04-22T12:29:47.074Z,29.82
2019-04-22T12:32:17.779Z,29.62
2019-04-22T12:34:49.318Z,29.11
2019-04-22T12:37:27.445Z,28.84
2019-04-22T12:39:55.957Z,29.68
2019-04-22T12:42:23.633Z,28.77
2019-04-22T12:44:54.181Z,28.27
2019-04-22T12:47:24.427Z,28.75
2019-04-22T12:50:06.850Z,28.06
2019-04-22T12:52:33.921Z,28.48
2019-04-22T12:54:58.302Z,28.19
2019-04-22T12:57:28.469Z,28.36
2019-04-22T12:59:59.567Z,28.31
2019-04-22T13:02:31.221Z,27.51
2019-04-22T13:05:01.506Z,28.63
2019-04-22T13:07:31.933Z,28.94
2019-04-22T13:10:02.083Z,28.51
2019-04-22T13:12:33.046Z,27.39
2019-04-22T13:15:05.966Z,28.05
2019-04-22T13:17:35.756Z,26.27
2019-04-22T13:20:07.980Z,27.95
2019-04-22T13:22:40.899Z,26.67
2019-04-22T13:25:12.514Z,27.22
2019-04-22T13:27:42.910Z,27.79
2019-04-22T13:30:14.477Z,27.99
2019-04-22T13:32:44.913Z,26.96
2019-04-22T13:35:18.499Z,25.98
2019-04-22T13:37:48.778Z,26.51
2019-04-22T13:40:19.287Z,28.10
2019-04-22T13:42:53.546Z,26.05
2019-04-22T13:45:24.220Z,26.15
2019-04-22T13:48:11.562Z,25.56
2019-04-22T13:51:01.339Z,26.66
2019-04-22T13:55:56.884Z,25.33
2019-04-22T13:58:18.404Z,25.15
2019-04-22T14:00:36.660Z,25.52
2019-04-22T14:03:39.311Z,25.03
2019-04-22T14:06:10.881Z,24.37
2019-04-22T14:08:41.099Z,25.46
2019-04-22T14:11:25.310Z,23.88
2019-04-22T14:13:43.876Z,24.46
2019-04-22T14:16:15.329Z,23.83
2019-04-22T14:18:46.102Z,23.48
2019-04-22T14:21:16.911Z,24.67
2019-04-22T14:23:48.432Z,24.20
2019-04-22T14:26:19.693Z,23.90
2019-04-22T14:28:50.127Z,22.68
2019-04-22T14:31:20.468Z,21.59
2019-04-22T14:33:55.171Z,22.00
2019-04-22T14:36:23.420Z,21.65
2019-04-22T14:38:54.386Z,20.84
2019-04-22T14:41:46.711Z,21.36
2019-04-22T14:44:56.440Z,21.74
2019-04-22T14:46:59.704Z,22.43
2019-04-22T14:49:24.074Z,22.46
2019-04-22T14:52:02.055Z,22.67
2019-04-22T14:54:25.574Z,22.23
2019-04-22T14:56:38.271Z,23.00
2019-04-22T14:59:11.594Z,22.50
2019-04-22T15:01:41.717Z,23.01
2019-04-22T15:04:13.333Z,22.84
2019-04-22T15:06:47.053Z,22.63
2019-04-22T15:09:16.229Z,24.00
2019-04-22T15:11:58.222Z,23.45
2019-04-22T15:14:19.422Z,23.38
2019-04-22T15:17:05.086Z,23.98
2019-04-22T15:19:43.578Z,23.39
2019-04-22T15:22:14.609Z,22.82
2019-04-22T15:24:46.971Z,23.34
2019-04-22T15:27:18.396Z,23.36
2019-04-22T15:29:49.412Z,22.96
2019-04-22T15:32:21.113Z,22.94
2019-04-22T15:34:51.439Z,22.95
2019-04-22T15:37:22.292Z,23.15
2019-04-22T15:39:56.310Z,22.75
2019-04-22T15:42:31.821Z,23.56
2019-04-22T15:44:57.978Z,24.61
2019-04-22T15:47:29.259Z,23.86
2019-04-22T15:50:00.273Z,24.09
2019-04-22T15:52:36.599Z,24.43
2019-04-22T15:55:02.919Z,24.21
2019-04-22T15:57:36.494Z,23.28
2019-04-22T16:00:19.927Z,24.05
2019-04-22T16:02:37.526Z,24.29
2019-04-22T16:05:08.782Z,24.88
2019-04-22T16:07:42.096Z,25.74
2019-04-22T16:10:12.477Z,25.79
2019-04-22T16:12:52.979Z,27.10
2019-04-22T16:15:16.105Z,27.50
2019-04-22T16:17:46.737Z,28.23
2019-04-22T16:20:17.429Z,28.25
2019-04-22T16:23:13.120Z,28.12
2019-04-22T16:25:49.621Z,28.24
2019-04-22T16:28:19.806Z,28.36
2019-04-22T16:30:51.098Z,29.17
2019-04-22T16:33:21.710Z,28.92
2019-04-22T16:35:53.130Z,29.32
2019-04-22T16:38:24.753Z,29.93
2019-04-22T16:40:55.118Z,30.51
2019-04-22T16:43:26.520Z,30.83
2019-04-22T16:45:57.980Z,30.98
2019-04-22T16:48:29.669Z,31.25
2019-04-22T16:51:00.308Z,31.35
2019-04-22T16:53:31.483Z,31.37
2019-04-22T16:56:02.747Z,31.99
2019-04-22T16:58:34.669Z,32.73
2019-04-22T17:01:07.267Z,33.53
2019-04-22T17:03:56.518Z,34.08
2019-04-22T17:06:33.546Z,34.03
2019-04-22T17:09:06.600Z,34.79
2019-04-22T17:11:38.166Z,34.29
2019-04-22T17:14:09.191Z,35.05
2019-04-22T17:16:39.620Z,34.77
2019-04-22T17:19:11.171Z,34.76
2019-04-22T17:21:41.538Z,34.83
2019-04-22T17:24:11.989Z,35.75
2019-04-22T17:26:42.511Z,35.23
2019-04-22T17:29:12.776Z,35.56
2019-04-22T17:31:48.406Z,36.20
2019-04-22T17:34:15.804Z,36.05
2019-04-22T17:36:46.369Z,35.68
2019-04-22T17:39:30.232Z,36.22
2019-04-22T17:42:11.440Z,36.21
2019-04-22T17:47:23.600Z,36.38
2019-04-22T17:50:08.161Z,36.70
2019-04-22T17:52:41.012Z,36.54
2019-04-22T17:55:07.584Z,36.70
2019-04-22T17:57:38.421Z,36.77
2019-04-22T18:00:12.058Z,36.44
2019-04-22T18:02:43.026Z,36.45
2019-04-22T18:05:03.475Z,36.38
2019-04-22T18:07:55.911Z,36.45
2019-04-22T18:13:08.838Z,36.72
2019-04-22T18:15:32.060Z,36.88
2019-04-22T18:18:09.111Z,36.97
2019-04-22T18:20:29.250Z,37.01
2019-04-22T18:22:59.581Z,37.25
2019-04-22T18:25:48.482Z,37.60
2019-04-22T18:28:22.234Z,37.36
2019-04-22T18:30:41.283Z,37.36
2019-04-22T18:33:25.717Z,37.58
2019-04-22T18:35:54.049Z,37.67
2019-04-22T18:38:42.389Z,37.97
2019-04-22T18:41:02.364Z,38.08
2019-04-22T18:43:40.521Z,37.73
2019-04-22T18:46:09.535Z,38.22
2019-04-22T18:48:42.617Z,38.00
2019-04-22T18:51:18.760Z,37.93
2019-04-22T18:54:06.181Z,38.32
2019-04-22T18:56:43.526Z,38.51
2019-04-22T18:59:07.673Z,38.64
2019-04-22T19:01:28.166Z,38.80
2019-04-22T19:04:10.534Z,38.89
2019-04-22T19:07:07.466Z,39.21
2019-04-22T19:09:51.351Z,38.98
2019-04-22T19:12:21.000Z,39.18
2019-04-22T19:14:45.179Z,39.26
2019-04-22T19:17:19.035Z,39.52
2019-04-22T19:19:44.402Z,39.76
2019-04-22T19:22:17.699Z,39.95
2019-04-22T19:24:41.791Z,39.96
2019-04-22T19:27:20.168Z,40.14
2019-04-22T19:29:57.806Z,40.50
2019-04-22T19:32:25.355Z,40.41
2019-04-22T19:34:57.480Z,40.85
2019-04-22T19:37:28.331Z,40.68
2019-04-22T19:40:10.508Z,40.51
2019-04-22T19:42:43.241Z,40.92
2019-04-22T19:45:09.255Z,41.14
2019-04-22T19:47:43.580Z,41.24
2019-04-22T19:50:19.194Z,41.10
2019-04-22T19:52:44.581Z,41.63
2019-04-22T19:55:21.953Z,41.63
2019-04-22T19:57:44.919Z,41.56
2019-04-22T20:00:35.094Z,41.88
2019-04-22T20:03:33.373Z,41.93
2019-04-22T20:06:02.686Z,42.08
2019-04-22T20:08:25.119Z,42.06
2019-04-22T20:11:03.576Z,42.14
2019-04-22T20:13:36.491Z,42.54
2019-04-22T20:15:59.691Z,42.48
2019-04-22T20:18:50.215Z,42.45
2019-04-22T20:21:18.296Z,42.72
2019-04-22T20:23:43.051Z,42.78
2019-04-22T20:26:23.499Z,43.03
2019-04-22T20:28:57.652Z,42.91
2019-04-22T20:31:28.919Z,43.28
2019-04-22T20:34:13.070Z,43.56
2019-04-22T20:39:04.928Z,43.56
2019-04-22T20:41:36.479Z,43.82
2019-04-22T20:44:19.040Z,43.41
2019-04-22T20:46:44.905Z,43.59
2019-04-22T20:49:27.368Z,43.69
2019-04-22T20:54:28.494Z,43.99
2019-04-22T20:56:55.338Z,44.11
2019-04-22T20:59:31.482Z,44.17
2019-04-22T21:02:03.679Z,44.39
2019-04-22T21:04:26.102Z,44.57
2019-04-22T21:07:01.951Z,44.82
2019-04-22T21:09:39.539Z,44.84
2019-04-22T21:12:05.150Z,45.06
2019-04-22T21:14:51.422Z,45.44
2019-04-22T21:17:13.885Z,45.42
2019-04-22T21:19:54.729Z,45.86
2019-04-22T21:22:24.470Z,46.31
2019-04-22T21:24:49.461Z,46.51
2019-04-22T21:29:49.238Z,47.34
2019-04-22T21:32:31.299Z,47.08
2019-04-22T21:35:22.859Z,47.20
2019-04-22T21:37:38.641Z,47.20
2019-04-22T21:39:59.067Z,47.50
2019-04-22T21:42:46.023Z,47.71
2019-04-22T21:45:05.318Z,47.98
2019-04-22T21:47:55.416Z,48.24
2019-04-22T21:50:28.142Z,48.40
2019-04-22T21:52:50.896Z,48.50
2019-04-22T21:55:21.426Z,48.82
2019-04-22T21:58:06.968Z,49.06
2019-04-22T22:00:55.746Z,49.10
2019-04-22T22:03:19.417Z,49.55
2019-04-22T22:05:43.689Z,49.48
2019-04-22T22:08:30.134Z,49.76
2019-04-22T22:10:54.087Z,49.82
2019-04-22T22:13:27.045Z,49.95
2019-04-22T22:15:59.827Z,49.93
2019-04-22T22:18:25.315Z,49.74
2019-04-22T22:21:18.852Z,49.95
2019-04-22T22:23:38.962Z,49.82
2019-04-22T22:26:04.077Z,50.03
2019-04-22T22:28:51.421Z,50.18
2019-04-22T22:31:14.838Z,50.17
2019-04-22T22:33:43.442Z,50.25
2019-04-22T22:36:04.985Z,50.23
2019-04-22T22:38:42.610Z,50.51
2019-04-22T22:40:56.029Z,50.45
2019-04-22T22:43:33.633Z,50.43
2019-04-22T22:46:10.329Z,50.64
2019-04-22T22:48:53.692Z,50.64
2019-04-22T22:51:34.258Z,50.64
2019-04-22T22:54:01.590Z,50.60
2019-04-22T22:56:41.015Z,50.94
2019-04-22T22:59:01.762Z,50.97
2019-04-22T23:01:37.947Z,51.07
2019-04-22T23:04:12.454Z,51.17
2019-04-22T23:06:40.629Z,51.26
2019-04-22T23:09:09.806Z,51.28
2019-04-22T23:12:00.574Z,51.67
2019-04-22T23:14:14.507Z,51.60
2019-04-22T23:16:35.440Z,52.08
2019-04-22T23:19:02.238Z,52.21
2019-04-22T23:21:41.556Z,52.00
2019-04-22T23:24:43.981Z,52.47
2019-04-22T23:27:17.109Z,52.38
2019-04-22T23:30:06.673Z,52.71
2019-04-22T23:32:38.850Z,52.79
2019-04-22T23:35:22.545Z,52.88
2019-04-22T23:37:57.100Z,52.93
2019-04-22T23:40:35.865Z,53.07
2019-04-22T23:43:09.660Z,53.57
2019-04-22T23:45:43.350Z,53.62
2019-04-22T23:48:06.814Z,53.66
2019-04-22T23:50:45.921Z,54.22
2019-04-22T23:53:55.672Z,53.94
2019-04-22T23:56:13.590Z,54.10
2019-04-22T23:58:52.629Z,54.29
